sensor_id;sensor_type;location;lat;lon;timestamp;pressure;altitude;pressure_sealevel;temperature;humidity
22649;BME280;11491;41.942;24.220;2023-03-14T00:00:23;90060.00;;;-0.76;68.25
22649;BME280;11491;41.942;24.220;2023-03-14T00:02:52;90063.13;;;-0.74;67.96
22649;BME280;11491;41.942;24.220;2023-03-14T00:05:19;90061.78;;;-0.66;66.75
22649;BME280;11491;41.942;24.220;2023-03-14T00:07:47;90049.44;;;-0.71;66.33
22649;BME280;11491;41.942;24.220;2023-03-14T00:10:15;90046.34;;;-0.78;67.59
22649;BME280;11491;41.942;24.220;2023-03-14T00:12:43;90039.09;;;-0.96;67.81
22649;BME280;11491;41.942;24.220;2023-03-14T00:15:10;90037.19;;;-0.85;67.10
22649;BME280;11491;41.942;24.220;2023-03-14T00:17:37;90033.19;;;-0.73;66.20
22649;BME280;11491;41.942;24.220;2023-03-14T00:20:06;90024.25;;;-0.72;66.10
22649;BME280;11491;41.942;24.220;2023-03-14T00:22:35;90021.66;;;-0.77;66.18
22649;BME280;11491;41.942;24.220;2023-03-14T00:25:05;90018.59;;;-0.89;66.44
22649;BME280;11491;41.942;24.220;2023-03-14T00:27:33;90013.84;;;-0.92;66.58
22649;BME280;11491;41.942;24.220;2023-03-14T00:29:59;90009.72;;;-0.98;67.29
22649;BME280;11491;41.942;24.220;2023-03-14T00:32:26;90005.47;;;-0.89;66.73
22649;BME280;11491;41.942;24.220;2023-03-14T00:34:53;90001.56;;;-0.97;66.85
22649;BME280;11491;41.942;24.220;2023-03-14T00:37:20;90000.94;;;-1.28;68.48
22649;BME280;11491;41.942;24.220;2023-03-14T00:39:46;89996.22;;;-1.26;70.00
22649;BME280;11491;41.942;24.220;2023-03-14T00:42:15;89989.91;;;-1.25;70.23
22649;BME280;11491;41.942;24.220;2023-03-14T00:44:42;89978.81;;;-1.12;68.09
22649;BME280;11491;41.942;24.220;2023-03-14T00:47:08;89985.91;;;-1.17;68.68
22649;BME280;11491;41.942;24.220;2023-03-14T00:49:35;89973.66;;;-1.32;68.54
22649;BME280;11491;41.942;24.220;2023-03-14T00:52:03;89960.50;;;-1.27;68.52
22649;BME280;11491;41.942;24.220;2023-03-14T00:54:30;89948.03;;;-1.45;69.13
22649;BME280;11491;41.942;24.220;2023-03-14T00:56:57;89947.25;;;-1.46;70.00
22649;BME280;11491;41.942;24.220;2023-03-14T00:59:25;89947.47;;;-1.42;70.71
22649;BME280;11491;41.942;24.220;2023-03-14T01:01:52;89940.38;;;-1.37;69.36
22649;BME280;11491;41.942;24.220;2023-03-14T01:04:18;89933.22;;;-1.21;68.39
22649;BME280;11491;41.942;24.220;2023-03-14T01:06:45;89931.16;;;-1.29;68.96
22649;BME280;11491;41.942;24.220;2023-03-14T01:09:12;89930.09;;;-1.28;68.63
22649;BME280;11491;41.942;24.220;2023-03-14T01:11:39;89925.44;;;-1.36;69.28
22649;BME280;11491;41.942;24.220;2023-03-14T01:14:05;89929.03;;;-1.27;68.90
22649;BME280;11491;41.942;24.220;2023-03-14T01:16:34;89929.06;;;-1.32;68.44
22649;BME280;11491;41.942;24.220;2023-03-14T01:19:01;89926.16;;;-1.25;69.52
22649;BME280;11491;41.942;24.220;2023-03-14T01:21:30;89928.09;;;-1.41;69.76
22649;BME280;11491;41.942;24.220;2023-03-14T01:23:59;89922.34;;;-1.48;70.27
22649;BME280;11491;41.942;24.220;2023-03-14T01:26:28;89921.81;;;-1.45;69.54
22649;BME280;11491;41.942;24.220;2023-03-14T01:28:56;89920.34;;;-1.22;68.39
22649;BME280;11491;41.942;24.220;2023-03-14T01:31:24;89915.47;;;-1.39;70.00
22649;BME280;11491;41.942;24.220;2023-03-14T01:33:52;89913.56;;;-1.78;70.65
22649;BME280;11491;41.942;24.220;2023-03-14T01:36:20;89904.56;;;-1.62;69.77
22649;BME280;11491;41.942;24.220;2023-03-14T01:38:46;89918.66;;;-1.47;69.05
22649;BME280;11491;41.942;24.220;2023-03-14T01:41:14;89913.91;;;-1.40;68.93
22649;BME280;11491;41.942;24.220;2023-03-14T01:43:42;89908.44;;;-1.44;68.71
22649;BME280;11491;41.942;24.220;2023-03-14T01:46:17;89904.72;;;-1.38;68.62
22649;BME280;11491;41.942;24.220;2023-03-14T01:48:49;89910.22;;;-1.39;68.54
22649;BME280;11491;41.942;24.220;2023-03-14T01:51:21;89906.09;;;-1.50;68.26
22649;BME280;11491;41.942;24.220;2023-03-14T01:53:50;89906.97;;;-1.65;70.81
22649;BME280;11491;41.942;24.220;2023-03-14T01:56:20;89903.63;;;-1.81;70.69
22649;BME280;11491;41.942;24.220;2023-03-14T01:58:48;89900.00;;;-1.90;71.72
22649;BME280;11491;41.942;24.220;2023-03-14T02:01:20;89893.09;;;-1.71;70.38
22649;BME280;11491;41.942;24.220;2023-03-14T02:03:50;89892.53;;;-1.68;70.28
22649;BME280;11491;41.942;24.220;2023-03-14T02:06:23;89894.69;;;-1.75;71.33
22649;BME280;11491;41.942;24.220;2023-03-14T02:08:52;89888.38;;;-1.74;70.73
22649;BME280;11491;41.942;24.220;2023-03-14T02:11:18;89896.69;;;-1.62;69.38
22649;BME280;11491;41.942;24.220;2023-03-14T02:13:46;89887.78;;;-1.61;69.12
22649;BME280;11491;41.942;24.220;2023-03-14T02:16:13;89878.91;;;-1.70;69.24
22649;BME280;11491;41.942;24.220;2023-03-14T02:18:40;89893.09;;;-1.71;69.38
22649;BME280;11491;41.942;24.220;2023-03-14T02:21:13;89892.06;;;-1.75;69.46
22649;BME280;11491;41.942;24.220;2023-03-14T02:23:48;89885.97;;;-1.65;69.88
22649;BME280;11491;41.942;24.220;2023-03-14T02:26:21;89882.09;;;-1.73;70.06
22649;BME280;11491;41.942;24.220;2023-03-14T02:28:51;89882.88;;;-1.78;70.79
22649;BME280;11491;41.942;24.220;2023-03-14T02:31:19;89882.66;;;-1.81;71.47
22649;BME280;11491;41.942;24.220;2023-03-14T02:33:47;89881.50;;;-1.65;69.37
22649;BME280;11491;41.942;24.220;2023-03-14T02:36:14;89866.97;;;-1.97;70.71
22649;BME280;11491;41.942;24.220;2023-03-14T02:38:46;89871.97;;;-1.95;71.24
22649;BME280;11491;41.942;24.220;2023-03-14T02:41:13;89870.59;;;-1.82;70.99
22649;BME280;11491;41.942;24.220;2023-03-14T02:43:40;89878.44;;;-1.82;70.09
22649;BME280;11491;41.942;24.220;2023-03-14T02:46:10;89882.16;;;-1.88;70.69
22649;BME280;11491;41.942;24.220;2023-03-14T02:48:41;89884.75;;;-1.83;70.26
22649;BME280;11491;41.942;24.220;2023-03-14T02:51:10;89883.53;;;-2.11;71.54
22649;BME280;11491;41.942;24.220;2023-03-14T02:53:37;89877.28;;;-2.10;71.87
22649;BME280;11491;41.942;24.220;2023-03-14T02:56:06;89881.34;;;-1.89;70.58
22649;BME280;11491;41.942;24.220;2023-03-14T02:58:33;89880.84;;;-1.86;70.19
22649;BME280;11491;41.942;24.220;2023-03-14T03:01:00;89883.19;;;-1.84;69.58
22649;BME280;11491;41.942;24.220;2023-03-14T03:03:28;89892.13;;;-1.90;69.66
22649;BME280;11491;41.942;24.220;2023-03-14T03:05:56;89890.28;;;-1.90;70.82
22649;BME280;11491;41.942;24.220;2023-03-14T03:08:25;89893.44;;;-1.88;70.24
22649;BME280;11491;41.942;24.220;2023-03-14T03:10:52;89896.31;;;-1.89;70.21
22649;BME280;11491;41.942;24.220;2023-03-14T03:13:20;89891.66;;;-2.03;70.93
22649;BME280;11491;41.942;24.220;2023-03-14T03:15:46;89895.28;;;-1.93;70.86
22649;BME280;11491;41.942;24.220;2023-03-14T03:18:13;89886.84;;;-1.85;70.13
22649;BME280;11491;41.942;24.220;2023-03-14T03:20:41;89879.81;;;-1.95;70.07
22649;BME280;11491;41.942;24.220;2023-03-14T03:23:08;89875.44;;;-2.10;71.58
22649;BME280;11491;41.942;24.220;2023-03-14T03:25:35;89879.34;;;-2.07;71.57
22649;BME280;11491;41.942;24.220;2023-03-14T03:28:01;89871.78;;;-2.19;71.92
22649;BME280;11491;41.942;24.220;2023-03-14T03:30:33;89879.63;;;-2.14;71.93
22649;BME280;11491;41.942;24.220;2023-03-14T03:33:00;89872.78;;;-2.05;70.54
22649;BME280;11491;41.942;24.220;2023-03-14T03:35:27;89868.59;;;-2.01;70.26
22649;BME280;11491;41.942;24.220;2023-03-14T03:37:55;89878.53;;;-2.03;70.74
22649;BME280;11491;41.942;24.220;2023-03-14T03:40:21;89870.16;;;-2.05;71.37
22649;BME280;11491;41.942;24.220;2023-03-14T03:42:48;89869.91;;;-2.03;70.57
22649;BME280;11491;41.942;24.220;2023-03-14T03:45:15;89865.97;;;-2.01;70.78
22649;BME280;11491;41.942;24.220;2023-03-14T03:47:42;89873.38;;;-2.18;70.88
22649;BME280;11491;41.942;24.220;2023-03-14T03:50:09;89872.59;;;-2.29;71.52
22649;BME280;11491;41.942;24.220;2023-03-14T03:52:36;89869.19;;;-2.24;71.94
22649;BME280;11491;41.942;24.220;2023-03-14T03:55:05;89866.00;;;-2.11;70.83
22649;BME280;11491;41.942;24.220;2023-03-14T03:57:32;89872.28;;;-2.12;70.96
22649;BME280;11491;41.942;24.220;2023-03-14T03:59:59;89865.00;;;-2.20;71.90
22649;BME280;11491;41.942;24.220;2023-03-14T04:02:26;89876.78;;;-2.23;72.17
22649;BME280;11491;41.942;24.220;2023-03-14T04:04:52;89868.16;;;-2.28;72.35
22649;BME280;11491;41.942;24.220;2023-03-14T04:07:19;89863.41;;;-2.26;72.74
22649;BME280;11491;41.942;24.220;2023-03-14T04:09:46;89868.16;;;-2.23;72.47
22649;BME280;11491;41.942;24.220;2023-03-14T04:12:14;89869.69;;;-2.17;72.47
22649;BME280;11491;41.942;24.220;2023-03-14T04:14:41;89869.50;;;-2.31;72.53
22649;BME280;11491;41.942;24.220;2023-03-14T04:17:07;89865.06;;;-2.41;72.52
22649;BME280;11491;41.942;24.220;2023-03-14T04:19:34;89863.41;;;-2.16;71.40
22649;BME280;11491;41.942;24.220;2023-03-14T04:22:01;89853.69;;;-2.10;70.88
22649;BME280;11491;41.942;24.220;2023-03-14T04:24:28;89858.16;;;-2.11;70.76
22649;BME280;11491;41.942;24.220;2023-03-14T04:26:55;89848.22;;;-2.24;71.61
22649;BME280;11491;41.942;24.220;2023-03-14T04:29:23;89844.56;;;-2.23;71.33
22649;BME280;11491;41.942;24.220;2023-03-14T04:31:49;89844.06;;;-2.30;71.81
22649;BME280;11491;41.942;24.220;2023-03-14T04:34:16;89839.84;;;-2.26;72.42
22649;BME280;11491;41.942;24.220;2023-03-14T04:36:43;89835.66;;;-2.22;72.53
22649;BME280;11491;41.942;24.220;2023-03-14T04:39:10;89840.63;;;-2.15;71.28
22649;BME280;11491;41.942;24.220;2023-03-14T04:41:36;89822.81;;;-2.24;71.03
22649;BME280;11491;41.942;24.220;2023-03-14T04:44:03;89829.91;;;-2.29;71.48
22649;BME280;11491;41.942;24.220;2023-03-14T04:46:31;89828.91;;;-2.44;72.08
22649;BME280;11491;41.942;24.220;2023-03-14T04:48:58;89827.91;;;-2.48;73.03
22649;BME280;11491;41.942;24.220;2023-03-14T04:51:25;89831.38;;;-2.73;74.13
22649;BME280;11491;41.942;24.220;2023-03-14T04:53:53;89834.19;;;-2.54;73.42
22649;BME280;11491;41.942;24.220;2023-03-14T04:56:20;89846.72;;;-2.35;73.05
22649;BME280;11491;41.942;24.220;2023-03-14T04:58:46;89845.59;;;-2.24;72.78
22649;BME280;11491;41.942;24.220;2023-03-14T05:01:13;89849.53;;;-2.27;73.28
22649;BME280;11491;41.942;24.220;2023-03-14T05:03:41;89850.88;;;-2.29;73.39
22649;BME280;11491;41.942;24.220;2023-03-14T05:06:08;89853.94;;;-2.07;72.43
22649;BME280;11491;41.942;24.220;2023-03-14T05:08:35;89849.44;;;-1.96;72.00
22649;BME280;11491;41.942;24.220;2023-03-14T05:11:02;89854.91;;;-1.92;72.43
22649;BME280;11491;41.942;24.220;2023-03-14T05:13:29;89851.81;;;-2.05;73.13
22649;BME280;11491;41.942;24.220;2023-03-14T05:16:03;89851.31;;;-2.12;73.79
22649;BME280;11491;41.942;24.220;2023-03-14T05:18:30;89862.25;;;-1.95;73.97
22649;BME280;11491;41.942;24.220;2023-03-14T05:20:58;89863.78;;;-1.83;73.45
22649;BME280;11491;41.942;24.220;2023-03-14T05:23:25;89865.34;;;-1.82;73.11
22649;BME280;11491;41.942;24.220;2023-03-14T05:25:52;89864.22;;;-1.66;72.08
22649;BME280;11491;41.942;24.220;2023-03-14T05:28:19;89873.63;;;-1.60;72.66
22649;BME280;11491;41.942;24.220;2023-03-14T05:30:46;89867.84;;;-1.62;72.53
22649;BME280;11491;41.942;24.220;2023-03-14T05:33:13;89869.34;;;-1.45;72.43
22649;BME280;11491;41.942;24.220;2023-03-14T05:35:40;89865.03;;;-1.26;71.53
22649;BME280;11491;41.942;24.220;2023-03-14T05:38:09;89861.63;;;-1.26;71.33
22649;BME280;11491;41.942;24.220;2023-03-14T05:40:36;89860.22;;;-1.14;71.14
22649;BME280;11491;41.942;24.220;2023-03-14T05:43:02;89864.53;;;-0.94;71.82
22649;BME280;11491;41.942;24.220;2023-03-14T05:45:29;89861.56;;;-0.87;71.50
22649;BME280;11491;41.942;24.220;2023-03-14T05:47:56;89857.19;;;-0.68;70.34
22649;BME280;11491;41.942;24.220;2023-03-14T05:50:23;89854.94;;;-0.50;70.46
22649;BME280;11491;41.942;24.220;2023-03-14T05:52:49;89853.53;;;-0.43;70.02
22649;BME280;11491;41.942;24.220;2023-03-14T05:55:17;89857.91;;;-0.33;70.46
22649;BME280;11491;41.942;24.220;2023-03-14T05:57:44;89848.53;;;-0.15;69.29
22649;BME280;11491;41.942;24.220;2023-03-14T06:00:12;89848.44;;;0.14;67.66
22649;BME280;11491;41.942;24.220;2023-03-14T06:02:39;89849.84;;;0.31;67.14
22649;BME280;11491;41.942;24.220;2023-03-14T06:05:07;89847.56;;;0.43;66.62
22649;BME280;11491;41.942;24.220;2023-03-14T06:07:34;89848.16;;;0.40;65.67
22649;BME280;11491;41.942;24.220;2023-03-14T06:10:01;89844.44;;;0.41;67.45
22649;BME280;11491;41.942;24.220;2023-03-14T06:12:29;89833.06;;;0.64;66.79
22649;BME280;11491;41.942;24.220;2023-03-14T06:14:56;89846.06;;;0.94;65.87
22649;BME280;11491;41.942;24.220;2023-03-14T06:17:22;89841.06;;;1.11;66.13
22649;BME280;11491;41.942;24.220;2023-03-14T06:19:49;89843.56;;;1.35;65.37
22649;BME280;11491;41.942;24.220;2023-03-14T06:22:16;89834.72;;;1.59;65.58
22649;BME280;11491;41.942;24.220;2023-03-14T06:24:43;89830.16;;;1.78;64.93
22649;BME280;11491;41.942;24.220;2023-03-14T06:27:09;89829.28;;;2.10;63.43
22649;BME280;11491;41.942;24.220;2023-03-14T06:29:37;89837.59;;;2.31;62.88
22649;BME280;11491;41.942;24.220;2023-03-14T06:32:04;89815.78;;;2.40;61.99
22649;BME280;11491;41.942;24.220;2023-03-14T06:34:31;89821.97;;;2.71;61.17
22649;BME280;11491;41.942;24.220;2023-03-14T06:36:58;89818.47;;;2.98;58.56
22649;BME280;11491;41.942;24.220;2023-03-14T06:39:25;89819.75;;;3.01;60.31
22649;BME280;11491;41.942;24.220;2023-03-14T06:41:51;89824.06;;;3.19;59.21
22649;BME280;11491;41.942;24.220;2023-03-14T06:44:18;89820.41;;;3.29;59.85
22649;BME280;11491;41.942;24.220;2023-03-14T06:46:46;89821.13;;;3.43;60.58
22649;BME280;11491;41.942;24.220;2023-03-14T06:49:13;89799.28;;;3.60;60.14
22649;BME280;11491;41.942;24.220;2023-03-14T06:51:40;89802.22;;;3.90;59.88
22649;BME280;11491;41.942;24.220;2023-03-14T06:54:07;89807.31;;;4.26;59.50
22649;BME280;11491;41.942;24.220;2023-03-14T06:56:33;89809.91;;;4.58;59.00
22649;BME280;11491;41.942;24.220;2023-03-14T06:59:00;89802.91;;;4.88;55.10
22649;BME280;11491;41.942;24.220;2023-03-14T07:01:28;89790.91;;;5.08;54.66
22649;BME280;11491;41.942;24.220;2023-03-14T07:03:57;89789.19;;;5.29;54.74
22649;BME280;11491;41.942;24.220;2023-03-14T07:06:24;89780.41;;;5.55;51.30
22649;BME280;11491;41.942;24.220;2023-03-14T07:08:51;89790.47;;;5.88;45.82
22649;BME280;11491;41.942;24.220;2023-03-14T07:11:18;89780.75;;;6.09;44.54
22649;BME280;11491;41.942;24.220;2023-03-14T07:13:44;89783.78;;;6.29;41.61
22649;BME280;11491;41.942;24.220;2023-03-14T07:16:11;89783.53;;;6.51;40.64
22649;BME280;11491;41.942;24.220;2023-03-14T07:18:38;89780.94;;;6.63;39.14
22649;BME280;11491;41.942;24.220;2023-03-14T07:21:07;89783.22;;;6.74;40.00
22649;BME280;11491;41.942;24.220;2023-03-14T07:23:35;89782.97;;;6.87;37.98
22649;BME280;11491;41.942;24.220;2023-03-14T07:26:01;89777.06;;;7.03;39.85
22649;BME280;11491;41.942;24.220;2023-03-14T07:28:28;89773.16;;;7.42;38.25
22649;BME280;11491;41.942;24.220;2023-03-14T07:30:55;89760.84;;;7.71;39.83
22649;BME280;11491;41.942;24.220;2023-03-14T07:33:22;89759.53;;;7.89;38.04
22649;BME280;11491;41.942;24.220;2023-03-14T07:35:49;89757.13;;;7.96;38.18
22649;BME280;11491;41.942;24.220;2023-03-14T07:38:18;89754.25;;;8.26;39.64
22649;BME280;11491;41.942;24.220;2023-03-14T07:40:44;89754.50;;;8.58;36.77
22649;BME280;11491;41.942;24.220;2023-03-14T07:43:11;89760.06;;;8.77;37.69
22649;BME280;11491;41.942;24.220;2023-03-14T07:45:38;89757.78;;;8.92;36.62
22649;BME280;11491;41.942;24.220;2023-03-14T07:48:04;89753.97;;;9.17;38.23
22649;BME280;11491;41.942;24.220;2023-03-14T07:50:31;89745.94;;;9.30;38.35
22649;BME280;11491;41.942;24.220;2023-03-14T07:52:58;89748.75;;;9.49;38.48
22649;BME280;11491;41.942;24.220;2023-03-14T07:55:26;89750.94;;;9.59;38.73
22649;BME280;11491;41.942;24.220;2023-03-14T07:57:53;89750.31;;;9.50;38.83
22649;BME280;11491;41.942;24.220;2023-03-14T08:00:21;89749.41;;;9.46;39.32
22649;BME280;11491;41.942;24.220;2023-03-14T08:02:48;89742.59;;;9.33;40.23
22649;BME280;11491;41.942;24.220;2023-03-14T08:05:14;89753.28;;;9.20;41.10
22649;BME280;11491;41.942;24.220;2023-03-14T08:07:41;89749.97;;;9.11;41.51
22649;BME280;11491;41.942;24.220;2023-03-14T08:10:09;89746.44;;;9.07;42.58
22649;BME280;11491;41.942;24.220;2023-03-14T08:12:37;89745.00;;;9.10;40.19
22649;BME280;11491;41.942;24.220;2023-03-14T08:15:05;89752.19;;;9.09;40.72
22649;BME280;11491;41.942;24.220;2023-03-14T08:17:32;89756.00;;;9.08;41.14
22649;BME280;11491;41.942;24.220;2023-03-14T08:19:59;89744.63;;;9.11;40.04
22649;BME280;11491;41.942;24.220;2023-03-14T08:22:26;89741.53;;;9.09;41.96
22649;BME280;11491;41.942;24.220;2023-03-14T08:24:53;89742.13;;;9.31;41.50
22649;BME280;11491;41.942;24.220;2023-03-14T08:27:19;89746.31;;;9.44;41.91
22649;BME280;11491;41.942;24.220;2023-03-14T08:29:47;89740.09;;;9.68;41.73
22649;BME280;11491;41.942;24.220;2023-03-14T08:32:14;89735.03;;;9.79;40.67
22649;BME280;11491;41.942;24.220;2023-03-14T08:34:41;89734.63;;;9.77;41.20
22649;BME280;11491;41.942;24.220;2023-03-14T08:37:08;89742.56;;;9.89;40.39
22649;BME280;11491;41.942;24.220;2023-03-14T08:39:34;89738.44;;;10.23;40.93
22649;BME280;11491;41.942;24.220;2023-03-14T08:42:01;89722.78;;;10.53;40.94
22649;BME280;11491;41.942;24.220;2023-03-14T08:44:28;89724.00;;;10.91;40.26
22649;BME280;11491;41.942;24.220;2023-03-14T08:46:57;89714.75;;;11.24;38.81
22649;BME280;11491;41.942;24.220;2023-03-14T08:49:23;89721.38;;;11.50;39.33
22649;BME280;11491;41.942;24.220;2023-03-14T08:51:50;89706.66;;;12.02;37.93
22649;BME280;11491;41.942;24.220;2023-03-14T08:54:17;89699.53;;;12.33;36.85
22649;BME280;11491;41.942;24.220;2023-03-14T08:56:44;89698.84;;;12.62;36.80
22649;BME280;11491;41.942;24.220;2023-03-14T08:59:11;89679.38;;;12.92;36.28
22649;BME280;11491;41.942;24.220;2023-03-14T09:01:37;89686.91;;;13.40;36.10
22649;BME280;11491;41.942;24.220;2023-03-14T09:04:06;89680.34;;;13.71;35.66
22649;BME280;11491;41.942;24.220;2023-03-14T09:06:33;89681.19;;;14.16;35.33
22649;BME280;11491;41.942;24.220;2023-03-14T09:08:59;89674.53;;;14.43;34.78
22649;BME280;11491;41.942;24.220;2023-03-14T09:11:26;89675.16;;;14.74;33.57
22649;BME280;11491;41.942;24.220;2023-03-14T09:13:53;89674.53;;;14.92;34.05
22649;BME280;11491;41.942;24.220;2023-03-14T09:16:20;89671.66;;;15.25;33.49
22649;BME280;11491;41.942;24.220;2023-03-14T09:18:46;89668.69;;;15.48;32.26
22649;BME280;11491;41.942;24.220;2023-03-14T09:21:15;89675.03;;;15.99;32.98
22649;BME280;11491;41.942;24.220;2023-03-14T09:23:42;89667.34;;;16.01;32.20
22649;BME280;11491;41.942;24.220;2023-03-14T09:26:10;89664.69;;;16.26;30.97
22649;BME280;11491;41.942;24.220;2023-03-14T09:28:37;89668.16;;;16.34;30.57
22649;BME280;11491;41.942;24.220;2023-03-14T09:31:08;89652.00;;;16.70;31.14
22649;BME280;11491;41.942;24.220;2023-03-14T09:33:36;89659.31;;;17.01;31.03
22649;BME280;11491;41.942;24.220;2023-03-14T09:36:03;89651.22;;;17.12;30.43
22649;BME280;11491;41.942;24.220;2023-03-14T09:38:32;89649.66;;;17.22;28.93
22649;BME280;11491;41.942;24.220;2023-03-14T09:41:00;89649.25;;;17.23;27.77
22649;BME280;11491;41.942;24.220;2023-03-14T09:43:30;89645.81;;;17.09;28.60
22649;BME280;11491;41.942;24.220;2023-03-14T09:46:00;89649.66;;;17.29;29.81
22649;BME280;11491;41.942;24.220;2023-03-14T09:48:30;89635.34;;;17.39;28.04
22649;BME280;11491;41.942;24.220;2023-03-14T09:50:59;89636.47;;;17.46;27.77
22649;BME280;11491;41.942;24.220;2023-03-14T09:53:37;89634.03;;;17.76;27.64
22649;BME280;11491;41.942;24.220;2023-03-14T09:56:11;89630.16;;;17.84;27.13
22649;BME280;11491;41.942;24.220;2023-03-14T09:58:41;89637.97;;;17.54;26.65
22649;BME280;11491;41.942;24.220;2023-03-14T10:01:11;89621.41;;;17.44;29.00
22649;BME280;11491;41.942;24.220;2023-03-14T10:03:40;89626.38;;;17.57;28.62
22649;BME280;11491;41.942;24.220;2023-03-14T10:06:11;89620.25;;;17.49;28.14
22649;BME280;11491;41.942;24.220;2023-03-14T10:08:40;89621.66;;;17.75;27.80
22649;BME280;11491;41.942;24.220;2023-03-14T10:11:13;89620.88;;;17.85;27.84
22649;BME280;11491;41.942;24.220;2023-03-14T10:13:49;89611.16;;;17.99;27.80
22649;BME280;11491;41.942;24.220;2023-03-14T10:16:16;89605.88;;;18.37;27.04
22649;BME280;11491;41.942;24.220;2023-03-14T10:18:45;89608.84;;;18.53;27.65
22649;BME280;11491;41.942;24.220;2023-03-14T10:21:20;89603.25;;;18.82;26.00
22649;BME280;11491;41.942;24.220;2023-03-14T10:23:48;89603.28;;;18.75;28.06
22649;BME280;11491;41.942;24.220;2023-03-14T10:26:17;89605.84;;;18.44;27.57
22649;BME280;11491;41.942;24.220;2023-03-14T10:28:46;89605.69;;;18.62;28.51
22649;BME280;11491;41.942;24.220;2023-03-14T10:31:13;89602.84;;;18.83;27.75
22649;BME280;11491;41.942;24.220;2023-03-14T10:33:41;89596.28;;;18.81;29.17
22649;BME280;11491;41.942;24.220;2023-03-14T10:36:18;89587.81;;;18.79;28.33
22649;BME280;11491;41.942;24.220;2023-03-14T10:38:46;89588.28;;;18.63;27.43
22649;BME280;11491;41.942;24.220;2023-03-14T10:41:17;89578.41;;;18.42;29.92
22649;BME280;11491;41.942;24.220;2023-03-14T10:43:49;89586.00;;;18.61;29.01
22649;BME280;11491;41.942;24.220;2023-03-14T10:46:19;89582.25;;;18.44;28.47
22649;BME280;11491;41.942;24.220;2023-03-14T10:48:46;89574.31;;;18.16;28.22
22649;BME280;11491;41.942;24.220;2023-03-14T10:51:19;89566.81;;;17.78;28.83
22649;BME280;11491;41.942;24.220;2023-03-14T10:54:00;89568.34;;;17.86;29.06
22649;BME280;11491;41.942;24.220;2023-03-14T10:56:35;89566.41;;;17.83;29.64
22649;BME280;11491;41.942;24.220;2023-03-14T10:59:03;89555.81;;;18.14;29.53
22649;BME280;11491;41.942;24.220;2023-03-14T11:01:37;89550.03;;;18.12;29.71
22649;BME280;11491;41.942;24.220;2023-03-14T11:04:15;89550.53;;;18.45;29.49
22649;BME280;11491;41.942;24.220;2023-03-14T11:06:48;89544.50;;;18.26;29.64
22649;BME280;11491;41.942;24.220;2023-03-14T11:09:23;89546.16;;;18.58;30.63
22649;BME280;11491;41.942;24.220;2023-03-14T11:11:54;89539.97;;;18.61;29.63
22649;BME280;11491;41.942;24.220;2023-03-14T11:14:29;89529.31;;;18.85;28.32
22649;BME280;11491;41.942;24.220;2023-03-14T11:17:02;89512.03;;;18.68;29.44
22649;BME280;11491;41.942;24.220;2023-03-14T11:19:49;89511.91;;;18.86;29.31
22649;BME280;11491;41.942;24.220;2023-03-14T11:22:24;89506.81;;;18.91;27.92
22649;BME280;11491;41.942;24.220;2023-03-14T11:25:17;89501.44;;;18.88;29.25
22649;BME280;11491;41.942;24.220;2023-03-14T11:27:51;89493.13;;;19.06;29.12
22649;BME280;11491;41.942;24.220;2023-03-14T11:30:27;89489.31;;;19.34;28.79
22649;BME280;11491;41.942;24.220;2023-03-14T11:33:01;89477.91;;;19.46;28.34
22649;BME280;11491;41.942;24.220;2023-03-14T11:35:33;89469.59;;;19.30;28.60
22649;BME280;11491;41.942;24.220;2023-03-14T11:38:09;89465.97;;;19.09;28.69
22649;BME280;11491;41.942;24.220;2023-03-14T11:40:38;89467.97;;;19.05;27.91
22649;BME280;11491;41.942;24.220;2023-03-14T11:43:11;89461.38;;;19.06;29.00
22649;BME280;11491;41.942;24.220;2023-03-14T11:45:41;89457.31;;;19.22;29.22
22649;BME280;11491;41.942;24.220;2023-03-14T11:48:23;89449.47;;;19.31;27.73
22649;BME280;11491;41.942;24.220;2023-03-14T11:50:53;89440.69;;;19.50;28.44
22649;BME280;11491;41.942;24.220;2023-03-14T11:53:34;89429.56;;;19.72;27.49
22649;BME280;11491;41.942;24.220;2023-03-14T11:56:03;89410.75;;;19.57;28.08
22649;BME280;11491;41.942;24.220;2023-03-14T11:58:34;89414.88;;;19.69;27.83
22649;BME280;11491;41.942;24.220;2023-03-14T12:01:09;89412.53;;;19.13;28.05
22649;BME280;11491;41.942;24.220;2023-03-14T12:03:42;89407.38;;;18.92;28.65
22649;BME280;11491;41.942;24.220;2023-03-14T12:06:16;89399.03;;;19.10;28.78
22649;BME280;11491;41.942;24.220;2023-03-14T12:08:49;89392.22;;;19.29;27.26
22649;BME280;11491;41.942;24.220;2023-03-14T12:11:30;89392.09;;;19.36;28.93
22649;BME280;11491;41.942;24.220;2023-03-14T12:14:00;89387.00;;;19.69;28.00
22649;BME280;11491;41.942;24.220;2023-03-14T12:16:34;89382.66;;;19.98;28.06
22649;BME280;11491;41.942;24.220;2023-03-14T12:19:21;89378.59;;;20.10;27.90
22649;BME280;11491;41.942;24.220;2023-03-14T12:21:55;89373.81;;;20.18;27.83
22649;BME280;11491;41.942;24.220;2023-03-14T12:24:26;89372.00;;;20.31;26.98
22649;BME280;11491;41.942;24.220;2023-03-14T12:26:56;89370.63;;;20.23;27.43
22649;BME280;11491;41.942;24.220;2023-03-14T12:29:25;89356.59;;;19.81;26.16
22649;BME280;11491;41.942;24.220;2023-03-14T12:32:12;89366.94;;;19.63;27.52
22649;BME280;11491;41.942;24.220;2023-03-14T12:34:47;89360.81;;;19.58;27.99
22649;BME280;11491;41.942;24.220;2023-03-14T12:37:19;89361.97;;;19.57;27.27
22649;BME280;11491;41.942;24.220;2023-03-14T12:39:59;89346.47;;;18.77;28.05
22649;BME280;11491;41.942;24.220;2023-03-14T12:42:40;89364.66;;;18.72;28.61
22649;BME280;11491;41.942;24.220;2023-03-14T12:45:27;89373.22;;;18.33;28.14
22649;BME280;11491;41.942;24.220;2023-03-14T12:48:00;89367.66;;;18.47;28.86
22649;BME280;11491;41.942;24.220;2023-03-14T12:50:40;89360.97;;;18.90;28.24
22649;BME280;11491;41.942;24.220;2023-03-14T12:56:21;89357.81;;;18.95;27.89
22649;BME280;11491;41.942;24.220;2023-03-14T12:59:08;89363.97;;;18.99;27.74
22649;BME280;11491;41.942;24.220;2023-03-14T13:01:46;89367.94;;;18.91;28.77
22649;BME280;11491;41.942;24.220;2023-03-14T13:04:14;89354.34;;;17.92;28.66